This is the latest recevied weather packets stored in our database for station/object HS5XHC-1. If no packets are shown the sender has not sent any weather packets the latest 1 day(s).
| Time | Temp. | Humidity | Pressure | Rain* | Wind** | Luminosity | Snow |
|---|---|---|---|---|---|---|---|
| 1778078764 | 31.67° C | 43% | 965 hPa | - | - | 0 W/m² | - |
| 1778074397 | 33.33° C | 40% | 964 hPa | - | - | 0 W/m² | - |
| 1778073149 | 33.33° C | 38% | 964 hPa | - | - | 0 W/m² | - |
| 1778070029 | 34.44° C | 36% | 964 hPa | - | - | 0 W/m² | - |
| 1778064414 | 36.11° C | 36% | 963 hPa | - | - | 0 W/m² | - |
| 1778062542 | 36.11° C | 35% | 963 hPa | - | - | 0 W/m² | - |
| 1778061918 | 36.11° C | 35% | 963 hPa | - | - | 0 W/m² | - |
| 1778061297 | 36.11° C | 34% | 963 hPa | - | - | 0 W/m² | - |
| 1778060670 | 36.11° C | 35% | 963 hPa | - | - | 0 W/m² | - |
| 1778058798 | 36.11° C | 38% | 963 hPa | - | - | 0 W/m² | - |
| 1778053807 | 36.11° C | 35% | 964 hPa | - | - | 0 W/m² | - |
| 1778052559 | 35.56° C | 36% | 964 hPa | - | - | 0 W/m² | - |
| 1778051935 | 35.56° C | 35% | 964 hPa | - | - | 0 W/m² | - |
| 1778051311 | 35.56° C | 34% | 965 hPa | - | - | 0 W/m² | - |
| 1778050687 | 35° C | 38% | 965 hPa | - | - | 0 W/m² | - |
| 1778050063 | 35° C | 40% | 965 hPa | - | - | 0 W/m² | - |
| 1778049439 | 35° C | 41% | 966 hPa | - | - | 0 W/m² | - |
| 1778048815 | 34.44° C | 40% | 966 hPa | - | - | 0 W/m² | - |
| 1778046319 | 33.89° C | 43% | 967 hPa | - | - | 0 W/m² | - |
| 1778045695 | 33.89° C | 44% | 967 hPa | - | - | 0 W/m² | - |
| 1778045071 | 33.33° C | 47% | 967 hPa | - | - | 0 W/m² | - |
| 1778044447 | 33.33° C | 48% | 967 hPa | - | - | 0 W/m² | - |
| 1778043823 | 32.78° C | 48% | 967 hPa | - | - | 0 W/m² | - |
| 1778043199 | 32.22° C | 49% | 967 hPa | - | - | 0 W/m² | - |
| 1778042575 | 32.22° C | 50% | 968 hPa | - | - | 0 W/m² | - |
* Rain since midnight (hover to see other rain measurements)
** Current wind speed in m/s (hover to see current wind gust speed)